sensor_id;sensor_type;location;lat;lon;timestamp;P1;durP1;ratioP1;P2;durP2;ratioP2
20369;SDS011;10344;47.592;9.600;2023-03-01T00:10:16;17.00;;;15.05;;
20369;SDS011;10344;47.592;9.600;2023-03-01T00:27:29;17.70;;;15.25;;
20369;SDS011;10344;47.592;9.600;2023-03-01T00:47:41;15.70;;;13.50;;
20369;SDS011;10344;47.592;9.600;2023-03-01T00:57:51;17.77;;;15.50;;
20369;SDS011;10344;47.592;9.600;2023-03-01T01:21:22;13.52;;;11.45;;
20369;SDS011;10344;47.592;9.600;2023-03-01T01:31:33;17.38;;;13.65;;
20369;SDS011;10344;47.592;9.600;2023-03-01T01:34:15;16.42;;;13.20;;
20369;SDS011;10344;47.592;9.600;2023-03-01T01:37:25;16.27;;;13.55;;
20369;SDS011;10344;47.592;9.600;2023-03-01T01:40:24;15.82;;;12.25;;
20369;SDS011;10344;47.592;9.600;2023-03-01T02:07:23;15.32;;;12.90;;
20369;SDS011;10344;47.592;9.600;2023-03-01T02:17:53;16.08;;;13.57;;
20369;SDS011;10344;47.592;9.600;2023-03-01T03:01:25;16.25;;;12.95;;
20369;SDS011;10344;47.592;9.600;2023-03-01T03:24:42;17.20;;;14.13;;
20369;SDS011;10344;47.592;9.600;2023-03-01T03:41:35;17.52;;;14.38;;
20369;SDS011;10344;47.592;9.600;2023-03-01T03:47:54;19.70;;;15.63;;
20369;SDS011;10344;47.592;9.600;2023-03-01T03:54:23;16.47;;;14.47;;
20369;SDS011;10344;47.592;9.600;2023-03-01T04:08:22;17.60;;;14.45;;
20369;SDS011;10344;47.592;9.600;2023-03-01T04:22:17;17.17;;;13.40;;
20369;SDS011;10344;47.592;9.600;2023-03-01T04:32:57;17.27;;;14.40;;
20369;SDS011;10344;47.592;9.600;2023-03-01T04:39:58;18.10;;;15.05;;
20369;SDS011;10344;47.592;9.600;2023-03-01T04:43:31;16.75;;;14.43;;
20369;SDS011;10344;47.592;9.600;2023-03-01T04:46:28;17.98;;;14.82;;
20369;SDS011;10344;47.592;9.600;2023-03-01T04:49:37;18.80;;;15.57;;
20369;SDS011;10344;47.592;9.600;2023-03-01T04:56:22;20.73;;;16.50;;
20369;SDS011;10344;47.592;9.600;2023-03-01T05:03:08;20.92;;;16.73;;
20369;SDS011;10344;47.592;9.600;2023-03-01T05:12:59;23.75;;;18.15;;
20369;SDS011;10344;47.592;9.600;2023-03-01T05:16:26;21.63;;;16.35;;
20369;SDS011;10344;47.592;9.600;2023-03-01T05:26:57;22.75;;;17.10;;
20369;SDS011;10344;47.592;9.600;2023-03-01T05:33:53;22.83;;;16.90;;
20369;SDS011;10344;47.592;9.600;2023-03-01T05:40:49;22.25;;;16.45;;
20369;SDS011;10344;47.592;9.600;2023-03-01T05:48:07;21.13;;;16.67;;
20369;SDS011;10344;47.592;9.600;2023-03-01T06:01:26;19.55;;;15.65;;
20369;SDS011;10344;47.592;9.600;2023-03-01T06:24:54;16.52;;;13.88;;
20369;SDS011;10344;47.592;9.600;2023-03-01T06:27:34;17.88;;;14.20;;
20369;SDS011;10344;47.592;9.600;2023-03-01T06:30:57;15.95;;;13.60;;
20369;SDS011;10344;47.592;9.600;2023-03-01T06:40:16;15.57;;;13.50;;
20369;SDS011;10344;47.592;9.600;2023-03-01T06:46:16;16.80;;;13.65;;
20369;SDS011;10344;47.592;9.600;2023-03-01T06:52:41;15.90;;;13.15;;
20369;SDS011;10344;47.592;9.600;2023-03-01T06:58:35;17.73;;;13.98;;
20369;SDS011;10344;47.592;9.600;2023-03-01T07:01:58;16.73;;;13.85;;
20369;SDS011;10344;47.592;9.600;2023-03-01T07:04:27;17.63;;;14.40;;
20369;SDS011;10344;47.592;9.600;2023-03-01T07:07:24;18.17;;;14.18;;
20369;SDS011;10344;47.592;9.600;2023-03-01T07:10:09;18.45;;;14.57;;
20369;SDS011;10344;47.592;9.600;2023-03-01T07:16:58;17.30;;;13.85;;
20369;SDS011;10344;47.592;9.600;2023-03-01T07:30:35;17.23;;;13.77;;
20369;SDS011;10344;47.592;9.600;2023-03-01T07:33:39;16.17;;;13.63;;
20369;SDS011;10344;47.592;9.600;2023-03-01T07:37:10;17.58;;;13.80;;
20369;SDS011;10344;47.592;9.600;2023-03-01T07:40:51;16.17;;;13.43;;
20369;SDS011;10344;47.592;9.600;2023-03-01T07:43:17;16.53;;;13.40;;
20369;SDS011;10344;47.592;9.600;2023-03-01T07:48:59;17.23;;;13.32;;
20369;SDS011;10344;47.592;9.600;2023-03-01T07:55:17;16.27;;;13.18;;
20369;SDS011;10344;47.592;9.600;2023-03-01T07:57:45;16.25;;;13.52;;
20369;SDS011;10344;47.592;9.600;2023-03-01T08:00:11;15.07;;;12.35;;
20369;SDS011;10344;47.592;9.600;2023-03-01T08:02:43;16.10;;;13.73;;
20369;SDS011;10344;47.592;9.600;2023-03-01T08:05:09;18.03;;;14.50;;
20369;SDS011;10344;47.592;9.600;2023-03-01T08:07:35;17.25;;;14.02;;
20369;SDS011;10344;47.592;9.600;2023-03-01T08:10:06;15.77;;;13.15;;
20369;SDS011;10344;47.592;9.600;2023-03-01T08:12:33;17.58;;;13.60;;
20369;SDS011;10344;47.592;9.600;2023-03-01T08:15:03;16.20;;;12.45;;
20369;SDS011;10344;47.592;9.600;2023-03-01T08:17:29;16.63;;;13.30;;
20369;SDS011;10344;47.592;9.600;2023-03-01T08:19:55;17.40;;;13.65;;
20369;SDS011;10344;47.592;9.600;2023-03-01T08:22:23;15.73;;;12.93;;
20369;SDS011;10344;47.592;9.600;2023-03-01T08:24:51;16.35;;;13.25;;
20369;SDS011;10344;47.592;9.600;2023-03-01T08:27:17;16.60;;;13.67;;
20369;SDS011;10344;47.592;9.600;2023-03-01T08:29:43;17.02;;;13.60;;
20369;SDS011;10344;47.592;9.600;2023-03-01T08:32:08;15.43;;;12.73;;
20369;SDS011;10344;47.592;9.600;2023-03-01T08:34:34;17.35;;;13.60;;
20369;SDS011;10344;47.592;9.600;2023-03-01T08:37:06;15.73;;;13.05;;
20369;SDS011;10344;47.592;9.600;2023-03-01T08:39:32;18.02;;;13.88;;
20369;SDS011;10344;47.592;9.600;2023-03-01T08:41:59;16.38;;;12.63;;
20369;SDS011;10344;47.592;9.600;2023-03-01T08:44:28;16.33;;;13.07;;
20369;SDS011;10344;47.592;9.600;2023-03-01T08:46:54;17.38;;;14.18;;
20369;SDS011;10344;47.592;9.600;2023-03-01T08:49:20;16.58;;;13.88;;
20369;SDS011;10344;47.592;9.600;2023-03-01T08:51:46;16.88;;;13.65;;
20369;SDS011;10344;47.592;9.600;2023-03-01T08:54:19;16.98;;;13.77;;
20369;SDS011;10344;47.592;9.600;2023-03-01T08:56:48;17.02;;;13.43;;
20369;SDS011;10344;47.592;9.600;2023-03-01T08:59:14;17.38;;;13.88;;
20369;SDS011;10344;47.592;9.600;2023-03-01T09:01:44;15.95;;;13.23;;
20369;SDS011;10344;47.592;9.600;2023-03-01T09:04:15;16.60;;;13.43;;
20369;SDS011;10344;47.592;9.600;2023-03-01T09:06:41;16.05;;;13.20;;
20369;SDS011;10344;47.592;9.600;2023-03-01T09:09:11;17.48;;;13.73;;
20369;SDS011;10344;47.592;9.600;2023-03-01T09:11:40;17.33;;;13.25;;
20369;SDS011;10344;47.592;9.600;2023-03-01T09:14:06;16.52;;;13.57;;
20369;SDS011;10344;47.592;9.600;2023-03-01T09:16:32;16.63;;;13.33;;
20369;SDS011;10344;47.592;9.600;2023-03-01T09:19:01;16.50;;;13.50;;
20369;SDS011;10344;47.592;9.600;2023-03-01T09:21:30;15.70;;;13.18;;
20369;SDS011;10344;47.592;9.600;2023-03-01T09:23:56;15.43;;;13.15;;
20369;SDS011;10344;47.592;9.600;2023-03-01T09:26:25;15.57;;;12.93;;
20369;SDS011;10344;47.592;9.600;2023-03-01T09:28:52;18.02;;;13.48;;
20369;SDS011;10344;47.592;9.600;2023-03-01T09:31:21;18.20;;;13.70;;
20369;SDS011;10344;47.592;9.600;2023-03-01T09:33:51;17.20;;;13.48;;
20369;SDS011;10344;47.592;9.600;2023-03-01T09:36:21;15.57;;;12.80;;
20369;SDS011;10344;47.592;9.600;2023-03-01T09:38:50;16.27;;;12.68;;
20369;SDS011;10344;47.592;9.600;2023-03-01T09:46:42;15.60;;;13.25;;
20369;SDS011;10344;47.592;9.600;2023-03-01T09:49:27;15.98;;;12.98;;
20369;SDS011;10344;47.592;9.600;2023-03-01T09:53:00;17.20;;;13.68;;
20369;SDS011;10344;47.592;9.600;2023-03-01T09:55:04;17.80;;;14.05;;
20369;SDS011;10344;47.592;9.600;2023-03-01T09:57:43;17.25;;;12.98;;
20369;SDS011;10344;47.592;9.600;2023-03-01T10:03:00;17.83;;;13.32;;
20369;SDS011;10344;47.592;9.600;2023-03-01T10:05:34;16.13;;;12.80;;
20369;SDS011;10344;47.592;9.600;2023-03-01T10:08:19;15.75;;;13.80;;
20369;SDS011;10344;47.592;9.600;2023-03-01T10:11:05;16.90;;;13.20;;
20369;SDS011;10344;47.592;9.600;2023-03-01T10:13:53;16.40;;;13.00;;
20369;SDS011;10344;47.592;9.600;2023-03-01T10:19:23;17.08;;;13.98;;
20369;SDS011;10344;47.592;9.600;2023-03-01T10:24:54;17.27;;;13.70;;
20369;SDS011;10344;47.592;9.600;2023-03-01T10:30:38;16.77;;;13.48;;
20369;SDS011;10344;47.592;9.600;2023-03-01T10:33:16;17.73;;;13.85;;
20369;SDS011;10344;47.592;9.600;2023-03-01T10:35:46;15.23;;;12.83;;
20369;SDS011;10344;47.592;9.600;2023-03-01T10:38:18;17.38;;;13.75;;
20369;SDS011;10344;47.592;9.600;2023-03-01T10:43:26;16.23;;;13.07;;
20369;SDS011;10344;47.592;9.600;2023-03-01T10:46:38;17.17;;;13.80;;
20369;SDS011;10344;47.592;9.600;2023-03-01T10:49:15;14.87;;;12.37;;
20369;SDS011;10344;47.592;9.600;2023-03-01T10:51:44;16.20;;;12.32;;
20369;SDS011;10344;47.592;9.600;2023-03-01T10:54:31;15.68;;;12.57;;
20369;SDS011;10344;47.592;9.600;2023-03-01T10:57:04;15.32;;;12.68;;
20369;SDS011;10344;47.592;9.600;2023-03-01T11:00:00;14.57;;;12.32;;
20369;SDS011;10344;47.592;9.600;2023-03-01T11:02:46;15.57;;;12.80;;
20369;SDS011;10344;47.592;9.600;2023-03-01T11:05:28;14.40;;;11.88;;
20369;SDS011;10344;47.592;9.600;2023-03-01T11:07:58;15.27;;;12.45;;
20369;SDS011;10344;47.592;9.600;2023-03-01T11:10:29;16.60;;;13.10;;
20369;SDS011;10344;47.592;9.600;2023-03-01T11:13:07;16.50;;;13.20;;
20369;SDS011;10344;47.592;9.600;2023-03-01T11:15:40;16.98;;;13.00;;
20369;SDS011;10344;47.592;9.600;2023-03-01T11:18:15;15.82;;;13.88;;
20369;SDS011;10344;47.592;9.600;2023-03-01T11:20:53;15.48;;;13.23;;
20369;SDS011;10344;47.592;9.600;2023-03-01T11:23:23;17.38;;;14.13;;
20369;SDS011;10344;47.592;9.600;2023-03-01T11:25:54;16.90;;;14.25;;
20369;SDS011;10344;47.592;9.600;2023-03-01T11:28:21;16.95;;;13.77;;
20369;SDS011;10344;47.592;9.600;2023-03-01T11:36:41;16.52;;;13.70;;
20369;SDS011;10344;47.592;9.600;2023-03-01T11:39:34;16.50;;;13.05;;
20369;SDS011;10344;47.592;9.600;2023-03-01T11:42:11;15.48;;;13.02;;
20369;SDS011;10344;47.592;9.600;2023-03-01T11:44:52;17.60;;;13.52;;
20369;SDS011;10344;47.592;9.600;2023-03-01T11:55:42;16.17;;;13.27;;
20369;SDS011;10344;47.592;9.600;2023-03-01T12:12:43;16.73;;;13.90;;
20369;SDS011;10344;47.592;9.600;2023-03-01T12:20:45;16.70;;;13.48;;
20369;SDS011;10344;47.592;9.600;2023-03-01T12:34:14;19.92;;;14.32;;
20369;SDS011;10344;47.592;9.600;2023-03-01T12:50:52;16.40;;;13.23;;
20369;SDS011;10344;47.592;9.600;2023-03-01T12:53:30;19.90;;;14.30;;
20369;SDS011;10344;47.592;9.600;2023-03-01T12:56:05;17.90;;;14.32;;
20369;SDS011;10344;47.592;9.600;2023-03-01T13:01:40;16.83;;;13.82;;
20369;SDS011;10344;47.592;9.600;2023-03-01T13:04:16;17.98;;;13.57;;
20369;SDS011;10344;47.592;9.600;2023-03-01T13:06:55;16.50;;;13.07;;
20369;SDS011;10344;47.592;9.600;2023-03-01T13:17:54;18.45;;;14.88;;
20369;SDS011;10344;47.592;9.600;2023-03-01T13:33:46;18.23;;;14.33;;
20369;SDS011;10344;47.592;9.600;2023-03-01T13:46:52;17.70;;;14.07;;
20369;SDS011;10344;47.592;9.600;2023-03-01T13:49:33;19.20;;;14.45;;
20369;SDS011;10344;47.592;9.600;2023-03-01T13:55:18;17.48;;;14.63;;
20369;SDS011;10344;47.592;9.600;2023-03-01T13:57:46;18.38;;;14.48;;
20369;SDS011;10344;47.592;9.600;2023-03-01T14:03:05;17.25;;;13.98;;
20369;SDS011;10344;47.592;9.600;2023-03-01T14:05:39;18.67;;;14.55;;
20369;SDS011;10344;47.592;9.600;2023-03-01T14:08:20;16.38;;;13.30;;
20369;SDS011;10344;47.592;9.600;2023-03-01T14:10:57;17.00;;;14.43;;
20369;SDS011;10344;47.592;9.600;2023-03-01T14:19:40;17.05;;;13.98;;
20369;SDS011;10344;47.592;9.600;2023-03-01T14:24:57;18.27;;;14.48;;
20369;SDS011;10344;47.592;9.600;2023-03-01T14:27:30;19.73;;;15.10;;
20369;SDS011;10344;47.592;9.600;2023-03-01T14:30:31;17.98;;;14.75;;
20369;SDS011;10344;47.592;9.600;2023-03-01T14:32:59;17.33;;;13.90;;
20369;SDS011;10344;47.592;9.600;2023-03-01T14:35:32;18.17;;;14.13;;
20369;SDS011;10344;47.592;9.600;2023-03-01T14:38:05;17.30;;;13.52;;
20369;SDS011;10344;47.592;9.600;2023-03-01T14:43:10;18.20;;;14.50;;
20369;SDS011;10344;47.592;9.600;2023-03-01T14:45:40;16.50;;;13.98;;
20369;SDS011;10344;47.592;9.600;2023-03-01T14:48:19;16.63;;;14.32;;
20369;SDS011;10344;47.592;9.600;2023-03-01T14:50:47;17.70;;;14.40;;
20369;SDS011;10344;47.592;9.600;2023-03-01T14:53:17;18.00;;;15.00;;
20369;SDS011;10344;47.592;9.600;2023-03-01T14:56:00;17.42;;;14.45;;
20369;SDS011;10344;47.592;9.600;2023-03-01T14:58:31;17.13;;;14.37;;
20369;SDS011;10344;47.592;9.600;2023-03-01T15:01:00;17.85;;;14.52;;
20369;SDS011;10344;47.592;9.600;2023-03-01T15:03:35;16.83;;;13.95;;
20369;SDS011;10344;47.592;9.600;2023-03-01T15:06:05;18.58;;;14.38;;
20369;SDS011;10344;47.592;9.600;2023-03-01T15:08:32;17.10;;;14.25;;
20369;SDS011;10344;47.592;9.600;2023-03-01T15:13:29;16.38;;;13.40;;
20369;SDS011;10344;47.592;9.600;2023-03-01T15:16:02;16.25;;;13.40;;
20369;SDS011;10344;47.592;9.600;2023-03-01T15:18:36;16.23;;;13.50;;
20369;SDS011;10344;47.592;9.600;2023-03-01T15:21:25;17.95;;;14.38;;
20369;SDS011;10344;47.592;9.600;2023-03-01T15:26:43;15.90;;;13.40;;
20369;SDS011;10344;47.592;9.600;2023-03-01T15:29:30;16.83;;;13.48;;
20369;SDS011;10344;47.592;9.600;2023-03-01T15:34:35;17.83;;;13.77;;
20369;SDS011;10344;47.592;9.600;2023-03-01T15:40:20;16.42;;;13.65;;
20369;SDS011;10344;47.592;9.600;2023-03-01T15:43:00;16.83;;;13.60;;
20369;SDS011;10344;47.592;9.600;2023-03-01T15:45:30;16.70;;;13.80;;
20369;SDS011;10344;47.592;9.600;2023-03-01T15:48:05;16.13;;;12.95;;
20369;SDS011;10344;47.592;9.600;2023-03-01T15:50:42;15.85;;;12.90;;
20369;SDS011;10344;47.592;9.600;2023-03-01T15:53:14;16.20;;;13.43;;
20369;SDS011;10344;47.592;9.600;2023-03-01T15:56:08;17.02;;;13.20;;
20369;SDS011;10344;47.592;9.600;2023-03-01T15:59:01;16.77;;;13.20;;
20369;SDS011;10344;47.592;9.600;2023-03-01T16:01:32;19.33;;;14.02;;
20369;SDS011;10344;47.592;9.600;2023-03-01T16:04:19;15.73;;;13.50;;
20369;SDS011;10344;47.592;9.600;2023-03-01T16:06:57;16.60;;;12.82;;
20369;SDS011;10344;47.592;9.600;2023-03-01T16:09:35;16.25;;;13.38;;
20369;SDS011;10344;47.592;9.600;2023-03-01T16:12:03;16.25;;;13.32;;
20369;SDS011;10344;47.592;9.600;2023-03-01T16:14:42;15.82;;;12.70;;
20369;SDS011;10344;47.592;9.600;2023-03-01T16:17:39;16.90;;;14.18;;
20369;SDS011;10344;47.592;9.600;2023-03-01T16:20:31;16.15;;;13.38;;
20369;SDS011;10344;47.592;9.600;2023-03-01T16:23:15;17.83;;;14.32;;
20369;SDS011;10344;47.592;9.600;2023-03-01T16:26:06;19.15;;;14.93;;
20369;SDS011;10344;47.592;9.600;2023-03-01T16:28:43;18.87;;;14.87;;
20369;SDS011;10344;47.592;9.600;2023-03-01T16:31:16;18.00;;;14.23;;
20369;SDS011;10344;47.592;9.600;2023-03-01T16:33:48;18.48;;;14.43;;
20369;SDS011;10344;47.592;9.600;2023-03-01T16:36:37;17.48;;;14.43;;
20369;SDS011;10344;47.592;9.600;2023-03-01T16:39:16;19.02;;;14.68;;
20369;SDS011;10344;47.592;9.600;2023-03-01T16:41:52;17.83;;;14.70;;
20369;SDS011;10344;47.592;9.600;2023-03-01T16:44:48;18.02;;;14.48;;
20369;SDS011;10344;47.592;9.600;2023-03-01T16:47:39;19.63;;;15.45;;
20369;SDS011;10344;47.592;9.600;2023-03-01T16:50:16;17.17;;;14.35;;
20369;SDS011;10344;47.592;9.600;2023-03-01T16:53:00;16.92;;;13.88;;
20369;SDS011;10344;47.592;9.600;2023-03-01T16:56:08;18.27;;;14.95;;
20369;SDS011;10344;47.592;9.600;2023-03-01T16:59:00;18.40;;;15.00;;
20369;SDS011;10344;47.592;9.600;2023-03-01T17:01:47;18.02;;;14.77;;
20369;SDS011;10344;47.592;9.600;2023-03-01T17:04:15;18.33;;;14.55;;
20369;SDS011;10344;47.592;9.600;2023-03-01T17:07:16;19.38;;;14.93;;
20369;SDS011;10344;47.592;9.600;2023-03-01T17:09:59;19.38;;;14.85;;
20369;SDS011;10344;47.592;9.600;2023-03-01T17:12:28;18.17;;;14.60;;
20369;SDS011;10344;47.592;9.600;2023-03-01T17:15:19;19.73;;;15.18;;
20369;SDS011;10344;47.592;9.600;2023-03-01T17:17:58;20.08;;;15.75;;
20369;SDS011;10344;47.592;9.600;2023-03-01T17:20:35;18.00;;;14.70;;
20369;SDS011;10344;47.592;9.600;2023-03-01T17:23:05;20.63;;;15.80;;
20369;SDS011;10344;47.592;9.600;2023-03-01T17:26:14;18.60;;;14.93;;
20369;SDS011;10344;47.592;9.600;2023-03-01T17:28:46;22.40;;;16.95;;
20369;SDS011;10344;47.592;9.600;2023-03-01T17:31:28;20.20;;;15.88;;
20369;SDS011;10344;47.592;9.600;2023-03-01T17:34:00;17.83;;;14.40;;
20369;SDS011;10344;47.592;9.600;2023-03-01T17:36:41;17.23;;;14.40;;
20369;SDS011;10344;47.592;9.600;2023-03-01T17:39:15;19.67;;;15.45;;
20369;SDS011;10344;47.592;9.600;2023-03-01T17:41:51;18.88;;;15.00;;
20369;SDS011;10344;47.592;9.600;2023-03-01T17:44:36;19.55;;;15.63;;
20369;SDS011;10344;47.592;9.600;2023-03-01T17:47:43;20.98;;;15.82;;
20369;SDS011;10344;47.592;9.600;2023-03-01T17:50:19;21.27;;;15.80;;
20369;SDS011;10344;47.592;9.600;2023-03-01T17:53:06;18.48;;;14.95;;
20369;SDS011;10344;47.592;9.600;2023-03-01T17:55:41;19.73;;;15.38;;
20369;SDS011;10344;47.592;9.600;2023-03-01T17:58:29;19.45;;;15.55;;
20369;SDS011;10344;47.592;9.600;2023-03-01T18:01:08;19.77;;;15.38;;
20369;SDS011;10344;47.592;9.600;2023-03-01T18:03:45;22.98;;;17.25;;
20369;SDS011;10344;47.592;9.600;2023-03-01T18:06:41;20.08;;;15.77;;
20369;SDS011;10344;47.592;9.600;2023-03-01T18:09:34;19.87;;;15.67;;
20369;SDS011;10344;47.592;9.600;2023-03-01T18:12:06;21.57;;;16.73;;
20369;SDS011;10344;47.592;9.600;2023-03-01T18:14:40;19.83;;;16.40;;
20369;SDS011;10344;47.592;9.600;2023-03-01T18:17:24;20.58;;;16.50;;
20369;SDS011;10344;47.592;9.600;2023-03-01T18:20:08;19.25;;;15.32;;
20369;SDS011;10344;47.592;9.600;2023-03-01T18:23:05;20.52;;;15.93;;
20369;SDS011;10344;47.592;9.600;2023-03-01T18:25:37;19.85;;;15.73;;
20369;SDS011;10344;47.592;9.600;2023-03-01T18:28:40;19.08;;;15.10;;
20369;SDS011;10344;47.592;9.600;2023-03-01T18:31:29;19.13;;;15.10;;
20369;SDS011;10344;47.592;9.600;2023-03-01T18:34:29;20.93;;;16.07;;
20369;SDS011;10344;47.592;9.600;2023-03-01T18:37:00;21.23;;;16.85;;
20369;SDS011;10344;47.592;9.600;2023-03-01T18:39:32;17.90;;;14.27;;
20369;SDS011;10344;47.592;9.600;2023-03-01T18:42:19;19.77;;;15.80;;
20369;SDS011;10344;47.592;9.600;2023-03-01T18:45:05;19.98;;;15.73;;
20369;SDS011;10344;47.592;9.600;2023-03-01T18:48:08;20.27;;;16.13;;
20369;SDS011;10344;47.592;9.600;2023-03-01T18:51:44;21.03;;;15.83;;
20369;SDS011;10344;47.592;9.600;2023-03-01T18:55:05;19.27;;;15.02;;
20369;SDS011;10344;47.592;9.600;2023-03-01T19:00:34;20.02;;;15.90;;
20369;SDS011;10344;47.592;9.600;2023-03-01T19:03:01;21.27;;;17.10;;
20369;SDS011;10344;47.592;9.600;2023-03-01T19:05:35;22.17;;;17.23;;
20369;SDS011;10344;47.592;9.600;2023-03-01T19:08:37;20.73;;;16.20;;
20369;SDS011;10344;47.592;9.600;2023-03-01T19:11:48;22.15;;;16.75;;
20369;SDS011;10344;47.592;9.600;2023-03-01T19:14:29;21.80;;;16.60;;
20369;SDS011;10344;47.592;9.600;2023-03-01T19:16:58;21.77;;;16.98;;
20369;SDS011;10344;47.592;9.600;2023-03-01T19:20:01;20.27;;;15.93;;
20369;SDS011;10344;47.592;9.600;2023-03-01T19:22:37;19.30;;;15.40;;
20369;SDS011;10344;47.592;9.600;2023-03-01T19:25:05;22.27;;;17.20;;
20369;SDS011;10344;47.592;9.600;2023-03-01T19:27:46;21.25;;;16.77;;
20369;SDS011;10344;47.592;9.600;2023-03-01T19:30:26;20.75;;;15.75;;
20369;SDS011;10344;47.592;9.600;2023-03-01T19:32:54;21.52;;;16.27;;
20369;SDS011;10344;47.592;9.600;2023-03-01T19:35:50;21.42;;;16.13;;
20369;SDS011;10344;47.592;9.600;2023-03-01T19:38:21;23.35;;;17.77;;
20369;SDS011;10344;47.592;9.600;2023-03-01T19:40:53;22.15;;;16.80;;
20369;SDS011;10344;47.592;9.600;2023-03-01T19:43:49;23.02;;;17.10;;
20369;SDS011;10344;47.592;9.600;2023-03-01T19:46:45;23.20;;;17.58;;
20369;SDS011;10344;47.592;9.600;2023-03-01T19:49:28;21.98;;;17.42;;
20369;SDS011;10344;47.592;9.600;2023-03-01T19:52:08;22.80;;;17.77;;
20369;SDS011;10344;47.592;9.600;2023-03-01T19:54:56;24.10;;;18.52;;
20369;SDS011;10344;47.592;9.600;2023-03-01T19:57:30;23.23;;;18.50;;
20369;SDS011;10344;47.592;9.600;2023-03-01T20:00:15;21.02;;;16.73;;
20369;SDS011;10344;47.592;9.600;2023-03-01T20:02:49;21.63;;;16.27;;
20369;SDS011;10344;47.592;9.600;2023-03-01T20:05:36;20.27;;;16.08;;
20369;SDS011;10344;47.592;9.600;2023-03-01T20:08:29;21.67;;;17.05;;
20369;SDS011;10344;47.592;9.600;2023-03-01T20:26:59;22.23;;;16.10;;
20369;SDS011;10344;47.592;9.600;2023-03-01T20:40:40;25.48;;;19.33;;
20369;SDS011;10344;47.592;9.600;2023-03-01T20:43:29;25.13;;;18.73;;
20369;SDS011;10344;47.592;9.600;2023-03-01T20:45:56;28.10;;;20.55;;
20369;SDS011;10344;47.592;9.600;2023-03-01T20:52:19;28.30;;;22.23;;
20369;SDS011;10344;47.592;9.600;2023-03-01T21:01:59;23.27;;;18.15;;
20369;SDS011;10344;47.592;9.600;2023-03-01T21:26:20;20.23;;;16.45;;
20369;SDS011;10344;47.592;9.600;2023-03-01T21:36:19;23.65;;;17.85;;
20369;SDS011;10344;47.592;9.600;2023-03-01T21:38:50;22.02;;;17.63;;
20369;SDS011;10344;47.592;9.600;2023-03-01T21:47:35;19.88;;;15.88;;
20369;SDS011;10344;47.592;9.600;2023-03-01T22:11:01;21.67;;;16.98;;
20369;SDS011;10344;47.592;9.600;2023-03-01T22:22:48;24.30;;;18.75;;
20369;SDS011;10344;47.592;9.600;2023-03-01T22:38:03;24.15;;;18.05;;
20369;SDS011;10344;47.592;9.600;2023-03-01T22:43:45;23.13;;;17.03;;
20369;SDS011;10344;47.592;9.600;2023-03-01T22:50:11;26.03;;;19.10;;
20369;SDS011;10344;47.592;9.600;2023-03-01T22:52:38;22.48;;;17.63;;
20369;SDS011;10344;47.592;9.600;2023-03-01T22:55:04;22.52;;;17.92;;
20369;SDS011;10344;47.592;9.600;2023-03-01T22:57:30;25.80;;;20.05;;
20369;SDS011;10344;47.592;9.600;2023-03-01T22:59:56;24.13;;;18.30;;
20369;SDS011;10344;47.592;9.600;2023-03-01T23:02:22;23.38;;;18.65;;
20369;SDS011;10344;47.592;9.600;2023-03-01T23:05:25;21.13;;;16.27;;
20369;SDS011;10344;47.592;9.600;2023-03-01T23:14:38;22.90;;;18.38;;
20369;SDS011;10344;47.592;9.600;2023-03-01T23:33:43;21.63;;;17.38;;
20369;SDS011;10344;47.592;9.600;2023-03-01T23:56:01;23.42;;;18.13;;
20369;SDS011;10344;47.592;9.600;2023-03-01T23:58:33;23.20;;;17.60;;
